createdAt,value
2022-12-11T00:02:13.577Z,10.30
2022-12-11T00:04:41.237Z,9.35
2022-12-11T00:07:08.825Z,8.73
2022-12-11T00:09:36.709Z,11.30
2022-12-11T00:12:05.264Z,9.85
2022-12-11T00:14:34.334Z,10.65
2022-12-11T00:17:02.020Z,10.38
2022-12-11T00:19:29.653Z,10.55
2022-12-11T00:21:57.529Z,9.95
2022-12-11T00:24:25.278Z,11.27
2022-12-11T00:26:52.887Z,10.68
2022-12-11T00:29:20.497Z,12.02
2022-12-11T00:31:49.496Z,11.20
2022-12-11T00:34:17.185Z,11.73
2022-12-11T00:36:44.857Z,10.95
2022-12-11T00:39:12.487Z,10.55
2022-12-11T00:41:40.143Z,10.85
2022-12-11T00:44:07.803Z,10.38
2022-12-11T00:46:35.389Z,11.38
2022-12-11T00:49:04.514Z,8.70
2022-12-11T00:51:32.129Z,10.52
2022-12-11T00:53:59.811Z,11.32
2022-12-11T00:56:27.435Z,12.13
2022-12-11T00:58:55.047Z,10.50
2022-12-11T01:01:23.628Z,9.80
2022-12-11T01:03:51.326Z,9.40
2022-12-11T01:06:21.931Z,9.48
2022-12-11T01:09:09.894Z,8.88
2022-12-11T01:11:36.578Z,11.32
2022-12-11T01:14:04.557Z,11.10
2022-12-11T01:16:32.356Z,8.35
2022-12-11T01:19:00.255Z,9.10
2022-12-11T01:21:29.226Z,10.20
2022-12-11T01:23:57.010Z,11.10
2022-12-11T01:26:24.663Z,9.80
2022-12-11T01:28:52.668Z,9.60
2022-12-11T01:31:20.889Z,9.50
2022-12-11T01:33:48.565Z,8.68
2022-12-11T01:36:17.195Z,8.75
2022-12-11T01:38:46.752Z,8.65
2022-12-11T01:41:14.851Z,11.63
2022-12-11T01:43:58.600Z,8.63
2022-12-11T01:46:26.583Z,7.95
2022-12-11T01:48:54.763Z,8.90
2022-12-11T01:51:22.959Z,9.57
2022-12-11T01:53:54.364Z,9.70
2022-12-11T01:56:22.001Z,8.75
2022-12-11T01:58:53.522Z,8.38
2022-12-11T02:01:23.648Z,7.30
2022-12-11T02:03:51.923Z,8.77
2022-12-11T02:06:30.426Z,9.82
2022-12-11T02:08:59.437Z,10.10
2022-12-11T02:11:31.030Z,8.15
2022-12-11T02:14:04.066Z,11.88
2022-12-11T02:16:36.155Z,9.13
2022-12-11T02:19:09.080Z,10.40
2022-12-11T02:21:39.798Z,9.93
2022-12-11T02:24:24.599Z,10.63
2022-12-11T02:26:57.479Z,10.05
2022-12-11T02:29:28.368Z,7.53
2022-12-11T02:31:59.108Z,8.05
2022-12-11T02:34:30.694Z,8.30
2022-12-11T02:37:00.380Z,10.13
2022-12-11T02:39:28.754Z,9.13
2022-12-11T02:41:57.177Z,8.63
2022-12-11T02:44:27.792Z,9.25
2022-12-11T02:46:56.057Z,8.75
2022-12-11T02:49:25.419Z,9.82
2022-12-11T02:51:53.557Z,11.07
2022-12-11T02:54:23.915Z,10.93
2022-12-11T02:56:52.606Z,7.80
2022-12-11T02:59:21.476Z,11.15
2022-12-11T03:01:50.611Z,8.50
2022-12-11T03:04:18.517Z,10.35
2022-12-11T03:06:48.433Z,8.65
2022-12-11T03:09:16.084Z,8.15
2022-12-11T03:11:43.802Z,9.05
2022-12-11T03:14:11.489Z,9.75
2022-12-11T03:16:40.079Z,8.93
2022-12-11T03:19:12.677Z,10.40
2022-12-11T03:21:44.763Z,9.05
2022-12-11T03:24:14.850Z,9.27
2022-12-11T03:26:44.828Z,9.55
2022-12-11T03:29:16.097Z,9.52
2022-12-11T03:31:44.803Z,10.10
2022-12-11T03:34:17.279Z,11.30
2022-12-11T03:36:45.619Z,10.52
2022-12-11T03:39:16.503Z,9.45
2022-12-11T03:41:45.575Z,8.85
2022-12-11T03:44:13.585Z,10.27
2022-12-11T03:46:42.218Z,10.63
2022-12-11T03:49:11.948Z,9.95
2022-12-11T03:51:42.306Z,9.85
2022-12-11T03:54:10.203Z,9.57
2022-12-11T03:56:38.170Z,9.88
2022-12-11T03:59:05.787Z,9.88
2022-12-11T04:01:33.397Z,9.63
2022-12-11T04:04:01.201Z,10.25
2022-12-11T04:06:28.935Z,10.90
2022-12-11T04:08:57.963Z,10.23
2022-12-11T04:11:37.712Z,9.90
2022-12-11T04:14:23.217Z,10.55
2022-12-11T04:16:50.999Z,11.20
2022-12-11T04:19:37.346Z,9.95
2022-12-11T04:22:22.466Z,11.57
2022-12-11T04:24:54.081Z,12.77
2022-12-11T04:27:35.692Z,9.98
2022-12-11T04:30:05.650Z,11.85
2022-12-11T04:32:33.272Z,12.57
2022-12-11T04:35:00.984Z,12.02
2022-12-11T04:37:28.753Z,11.43
2022-12-11T04:39:57.776Z,11.90
2022-12-11T04:42:25.387Z,12.82
2022-12-11T04:44:53.073Z,12.38
2022-12-11T04:47:20.714Z,12.75
2022-12-11T04:49:48.474Z,12.38
2022-12-11T04:52:16.148Z,12.93
2022-12-11T04:54:43.835Z,13.20
2022-12-11T04:57:12.800Z,11.48
2022-12-11T04:59:40.512Z,14.38
2022-12-11T05:02:08.101Z,13.02
2022-12-11T05:04:36.986Z,12.77
2022-12-11T05:07:04.657Z,14.30
2022-12-11T05:09:32.289Z,14.60
2022-12-11T05:12:00.774Z,12.50
2022-12-11T05:14:31.975Z,12.77
2022-12-11T05:16:59.628Z,13.57
2022-12-11T05:19:27.562Z,12.55
2022-12-11T05:21:55.233Z,13.18
2022-12-11T05:24:22.976Z,13.07
2022-12-11T05:26:50.595Z,14.50
2022-12-11T05:29:18.581Z,13.23
2022-12-11T05:31:47.585Z,12.63
2022-12-11T05:34:15.945Z,14.02
2022-12-11T05:36:43.677Z,13.65
2022-12-11T05:39:12.562Z,13.95
2022-12-11T05:41:40.376Z,14.70
2022-12-11T05:44:08.144Z,12.85
2022-12-11T05:46:36.209Z,11.40
2022-12-11T05:49:05.222Z,13.43
2022-12-11T05:51:34.232Z,13.80
2022-12-11T05:54:02.037Z,13.80
2022-12-11T05:56:30.161Z,13.98
2022-12-11T05:58:58.419Z,13.60
2022-12-11T06:01:27.133Z,12.70
2022-12-11T06:03:55.504Z,13.35
2022-12-11T06:06:24.842Z,13.45
2022-12-11T06:08:52.484Z,13.52
2022-12-11T06:11:23.907Z,10.95
2022-12-11T06:13:52.069Z,12.80
2022-12-11T06:16:19.808Z,11.60
2022-12-11T06:18:47.962Z,12.25
2022-12-11T06:21:16.202Z,13.77
2022-12-11T06:23:45.540Z,10.25
2022-12-11T06:26:13.772Z,12.40
2022-12-11T06:28:41.611Z,12.60
2022-12-11T06:31:09.463Z,11.48
2022-12-11T06:33:37.163Z,13.77
2022-12-11T06:36:05.573Z,11.75
2022-12-11T06:38:33.434Z,12.68
2022-12-11T06:41:04.784Z,15.05
2022-12-11T06:43:32.521Z,12.13
2022-12-11T06:46:03.834Z,13.52
2022-12-11T06:48:32.275Z,10.95
2022-12-11T06:50:59.943Z,13.10
2022-12-11T06:53:27.852Z,11.43
2022-12-11T06:55:55.452Z,12.05
2022-12-11T06:58:24.477Z,11.93
2022-12-11T07:00:52.217Z,12.32
2022-12-11T07:03:20.247Z,13.32
2022-12-11T07:05:48.000Z,12.48
2022-12-11T07:08:15.893Z,11.02
2022-12-11T07:10:43.617Z,13.60
2022-12-11T07:13:11.323Z,11.93
2022-12-11T07:15:40.729Z,13.38
2022-12-11T07:18:09.430Z,13.43
2022-12-11T07:20:39.395Z,11.68
2022-12-11T07:23:07.049Z,12.95
2022-12-11T07:25:34.664Z,11.88
2022-12-11T07:28:02.370Z,11.93
2022-12-11T07:30:30.657Z,16.48
2022-12-11T07:33:00.143Z,13.60
2022-12-11T07:35:27.838Z,13.48
2022-12-11T07:37:55.944Z,14.15
2022-12-11T07:40:23.807Z,11.57
2022-12-11T07:42:51.453Z,12.57
2022-12-11T07:45:19.197Z,14.90
2022-12-11T07:47:46.856Z,12.90
2022-12-11T07:50:16.081Z,14.10
2022-12-11T07:52:44.586Z,11.90
2022-12-11T07:55:12.498Z,12.98
2022-12-11T07:57:40.922Z,13.05
2022-12-11T08:00:09.044Z,11.57
2022-12-11T08:02:37.581Z,11.35
2022-12-11T08:05:05.700Z,11.68
2022-12-11T08:07:36.450Z,11.18
2022-12-11T08:10:04.567Z,11.60
2022-12-11T08:12:32.206Z,12.57
2022-12-11T08:14:59.867Z,13.60
2022-12-11T08:17:30.956Z,14.07
2022-12-11T08:19:59.765Z,12.55
2022-12-11T08:22:27.405Z,12.82
2022-12-11T08:24:56.593Z,12.68
2022-12-11T08:27:24.251Z,13.07
2022-12-11T08:29:51.893Z,13.25
2022-12-11T08:32:19.582Z,11.50
2022-12-11T08:34:47.224Z,12.60
2022-12-11T08:37:14.854Z,11.30
2022-12-11T08:39:43.445Z,11.95
2022-12-11T08:42:12.426Z,11.95
2022-12-11T08:44:40.109Z,13.30
2022-12-11T08:47:09.866Z,11.57
2022-12-11T08:49:37.604Z,12.48
2022-12-11T08:52:05.553Z,11.45
2022-12-11T08:54:33.286Z,11.23
2022-12-11T08:57:00.984Z,11.57
2022-12-11T08:59:30.054Z,13.40
2022-12-11T09:01:59.652Z,13.05
2022-12-11T09:04:27.330Z,12.32
2022-12-11T09:06:55.166Z,13.60
2022-12-11T09:09:22.790Z,12.95
2022-12-11T09:11:50.865Z,12.15
2022-12-11T09:14:18.645Z,11.70
2022-12-11T09:16:47.859Z,11.50
2022-12-11T09:19:16.533Z,11.52
2022-12-11T09:21:44.688Z,12.52
2022-12-11T09:24:13.862Z,12.73
2022-12-11T09:26:41.646Z,11.82
2022-12-11T09:29:10.260Z,12.52
2022-12-11T09:31:38.146Z,12.35
2022-12-11T09:34:08.394Z,11.07
2022-12-11T09:36:36.129Z,9.98
2022-12-11T09:39:04.471Z,12.90
2022-12-11T09:41:39.788Z,11.40
2022-12-11T09:44:14.560Z,9.95
2022-12-11T09:46:42.703Z,10.15
2022-12-11T09:49:16.468Z,11.13
2022-12-11T09:51:47.263Z,11.32
2022-12-11T09:54:15.413Z,10.43
2022-12-11T09:56:45.976Z,10.55
2022-12-11T09:59:19.654Z,10.13
2022-12-11T10:01:50.871Z,9.40
2022-12-11T10:04:38.922Z,9.88
2022-12-11T10:07:13.128Z,9.15
2022-12-11T10:09:44.543Z,7.75
2022-12-11T10:12:30.053Z,7.55
2022-12-11T10:15:13.608Z,9.15
2022-12-11T10:17:44.608Z,7.93
2022-12-11T10:20:18.610Z,8.52
2022-12-11T10:22:48.034Z,8.77
2022-12-11T10:25:20.447Z,8.75
2022-12-11T10:27:48.295Z,8.85
2022-12-11T10:30:18.188Z,9.05
2022-12-11T10:32:51.513Z,9.68
2022-12-11T10:35:21.249Z,9.52
2022-12-11T10:37:50.317Z,10.80
2022-12-11T10:40:19.445Z,10.77
2022-12-11T10:42:53.348Z,8.55
2022-12-11T10:45:21.121Z,8.85
2022-12-11T10:47:48.870Z,8.95
2022-12-11T10:50:24.108Z,9.13
2022-12-11T10:52:55.044Z,10.68
2022-12-11T10:55:23.694Z,9.00
2022-12-11T10:57:59.765Z,10.07
2022-12-11T11:00:32.392Z,9.35
2022-12-11T11:03:02.252Z,10.65
2022-12-11T11:05:31.722Z,10.55
2022-12-11T11:08:14.678Z,9.25
2022-12-11T11:10:54.018Z,9.98
2022-12-11T11:13:24.909Z,9.05
2022-12-11T11:15:59.708Z,9.23
2022-12-11T11:18:28.978Z,9.88
2022-12-11T11:20:56.814Z,9.55
2022-12-11T11:23:25.115Z,10.15
2022-12-11T11:25:55.200Z,9.55
2022-12-11T11:28:24.510Z,10.70
2022-12-11T11:30:57.607Z,8.32
2022-12-11T11:33:25.864Z,9.18
2022-12-11T11:35:54.116Z,9.15
2022-12-11T11:38:23.295Z,9.88
2022-12-11T11:40:59.383Z,9.82
2022-12-11T11:43:35.513Z,8.45
2022-12-11T11:46:05.607Z,9.20
2022-12-11T11:48:37.293Z,9.40
2022-12-11T11:51:09.606Z,8.18
2022-12-11T11:53:41.712Z,8.55
2022-12-11T11:56:17.426Z,10.05
2022-12-11T11:58:48.853Z,7.97
2022-12-11T12:01:17.847Z,8.40
2022-12-11T12:03:46.464Z,8.52
2022-12-11T12:06:19.937Z,8.23
2022-12-11T12:08:51.403Z,10.52
2022-12-11T12:11:25.970Z,9.23
2022-12-11T12:14:00.833Z,8.75
2022-12-11T12:19:23.876Z,8.75
2022-12-11T12:21:52.656Z,8.68
2022-12-11T12:24:24.957Z,8.68
2022-12-11T12:26:54.894Z,8.02
2022-12-11T12:29:26.957Z,9.65
2022-12-11T12:32:01.110Z,10.25
2022-12-11T12:34:33.875Z,9.77
2022-12-11T12:37:08.747Z,8.02
2022-12-11T12:39:42.890Z,10.18
2022-12-11T12:42:16.925Z,7.55
2022-12-11T12:44:51.923Z,8.90
2022-12-11T12:47:19.978Z,8.18
2022-12-11T12:49:48.270Z,7.55
2022-12-11T12:52:17.915Z,7.97
2022-12-11T12:55:07.575Z,8.77
2022-12-11T12:57:35.973Z,9.32
2022-12-11T13:00:11.124Z,9.07
2022-12-11T13:02:48.905Z,8.77
2022-12-11T13:05:22.039Z,9.52
2022-12-11T13:07:54.184Z,7.25
2022-12-11T13:10:27.320Z,7.43
2022-12-11T13:12:55.724Z,8.15
2022-12-11T13:15:29.043Z,7.25
2022-12-11T13:17:57.159Z,8.10
2022-12-11T13:20:25.815Z,9.25
2022-12-11T13:23:11.172Z,8.40
2022-12-11T13:25:56.426Z,8.25
2022-12-11T13:28:25.604Z,6.13
2022-12-11T13:31:06.134Z,8.38
2022-12-11T13:33:34.551Z,8.45
2022-12-11T13:36:20.110Z,9.23
2022-12-11T13:38:52.509Z,6.88
2022-12-11T13:41:20.788Z,7.65
2022-12-11T13:43:50.129Z,9.70
2022-12-11T13:46:21.774Z,7.65
2022-12-11T13:48:49.961Z,6.82
2022-12-11T13:51:18.595Z,7.15
2022-12-11T13:53:46.478Z,7.20
2022-12-11T13:56:17.245Z,8.07
2022-12-11T13:58:44.914Z,7.65
2022-12-11T14:01:13.905Z,6.88
2022-12-11T14:03:44.476Z,7.07
2022-12-11T14:06:18.256Z,7.68
2022-12-11T14:08:47.258Z,5.88
2022-12-11T14:11:19.808Z,6.38
2022-12-11T14:13:47.417Z,6.20
2022-12-11T14:16:15.847Z,5.93
2022-12-11T14:18:44.890Z,5.05
2022-12-11T14:21:19.125Z,6.57
2022-12-11T14:23:52.201Z,6.57
2022-12-11T14:26:21.293Z,6.00
2022-12-11T14:28:49.030Z,4.55
2022-12-11T14:31:17.855Z,6.30
2022-12-11T14:33:49.724Z,5.88
2022-12-11T14:36:17.606Z,5.60
2022-12-11T14:38:47.410Z,5.35
2022-12-11T14:41:17.795Z,6.18
2022-12-11T14:43:46.717Z,4.88
2022-12-11T14:46:17.650Z,5.85
2022-12-11T14:48:48.982Z,6.03
2022-12-11T14:51:19.040Z,6.20
2022-12-11T14:53:48.685Z,6.63
2022-12-11T14:56:18.656Z,6.20
2022-12-11T14:58:54.295Z,4.95
2022-12-11T15:01:23.264Z,6.80
2022-12-11T15:03:50.995Z,6.28
2022-12-11T15:06:27.420Z,6.82
2022-12-11T15:08:55.894Z,6.13
2022-12-11T15:11:25.104Z,5.97
2022-12-11T15:13:53.753Z,6.53
2022-12-11T15:16:22.274Z,5.47
2022-12-11T15:18:50.750Z,5.93
2022-12-11T15:21:18.813Z,5.63
2022-12-11T15:23:53.606Z,6.85
2022-12-11T15:26:21.931Z,7.57
2022-12-11T15:29:00.024Z,5.65
2022-12-11T15:31:28.713Z,7.03
2022-12-11T15:33:56.458Z,5.65
2022-12-11T15:36:26.603Z,5.30
2022-12-11T15:38:55.763Z,6.30
2022-12-11T15:41:25.002Z,6.28
2022-12-11T15:43:58.327Z,6.68
2022-12-11T15:46:27.168Z,5.25
2022-12-11T15:48:56.552Z,5.88
2022-12-11T15:51:25.354Z,5.70
2022-12-11T15:53:53.002Z,5.40
2022-12-11T15:56:22.042Z,5.07
2022-12-11T15:58:50.485Z,5.47
2022-12-11T16:01:18.641Z,5.68
2022-12-11T16:03:46.429Z,5.43
2022-12-11T16:06:14.471Z,4.88
2022-12-11T16:08:42.146Z,8.98
2022-12-11T16:11:12.334Z,13.15
2022-12-11T16:13:41.420Z,12.93
2022-12-11T16:16:09.307Z,11.07
2022-12-11T16:18:37.082Z,9.57
2022-12-11T16:21:05.339Z,10.10
2022-12-11T16:23:33.023Z,11.57
2022-12-11T16:26:00.913Z,9.13
2022-12-11T16:28:28.544Z,16.65
2022-12-11T16:30:57.639Z,12.30
2022-12-11T16:33:25.310Z,6.85
2022-12-11T16:35:52.996Z,8.18
2022-12-11T16:38:20.656Z,8.57
2022-12-11T16:40:48.541Z,10.77
2022-12-11T16:43:16.516Z,8.38
2022-12-11T16:45:44.201Z,8.15
2022-12-11T16:48:13.283Z,7.50
2022-12-11T16:50:41.592Z,7.10
2022-12-11T16:53:09.714Z,7.50
2022-12-11T16:55:37.364Z,7.65
2022-12-11T16:58:05.059Z,7.43
2022-12-11T17:00:32.688Z,6.85
2022-12-11T17:03:00.423Z,6.82
2022-12-11T17:05:29.563Z,6.70
2022-12-11T17:07:57.241Z,6.53
2022-12-11T17:10:24.984Z,7.25
2022-12-11T17:12:52.649Z,7.60
2022-12-11T17:15:20.652Z,7.80
2022-12-11T17:17:48.261Z,7.07
2022-12-11T17:20:16.029Z,7.25
2022-12-11T17:22:46.059Z,7.45
2022-12-11T17:25:15.014Z,9.52
2022-12-11T17:27:42.682Z,9.30
2022-12-11T17:30:10.784Z,8.05
2022-12-11T17:32:38.560Z,8.43
2022-12-11T17:35:06.719Z,7.03
2022-12-11T17:37:34.592Z,6.35
2022-12-11T17:40:06.119Z,7.50
2022-12-11T17:42:34.659Z,6.72
2022-12-11T17:45:02.335Z,7.07
2022-12-11T17:47:30.116Z,6.38
2022-12-11T17:49:57.854Z,7.68
2022-12-11T17:52:28.407Z,6.63
2022-12-11T17:55:00.194Z,9.90
2022-12-11T17:57:29.240Z,9.00
2022-12-11T17:59:56.955Z,7.60
2022-12-11T18:02:24.635Z,8.10
2022-12-11T18:04:55.030Z,6.28
2022-12-11T18:07:22.645Z,6.95
2022-12-11T18:09:50.536Z,7.63
2022-12-11T18:12:18.137Z,7.68
2022-12-11T18:14:47.229Z,6.43
2022-12-11T18:17:15.135Z,8.70
2022-12-11T18:19:46.236Z,7.93
2022-12-11T18:22:14.135Z,6.68
2022-12-11T18:24:41.832Z,7.00
2022-12-11T18:27:11.617Z,7.50
2022-12-11T18:29:39.296Z,7.57
2022-12-11T18:32:08.356Z,7.20
2022-12-11T18:34:36.123Z,6.55
2022-12-11T18:37:03.800Z,7.13
2022-12-11T18:39:31.583Z,6.55
2022-12-11T18:42:31.294Z,7.53
2022-12-11T18:44:47.262Z,9.52
2022-12-11T18:47:16.557Z,10.38
2022-12-11T18:49:44.346Z,8.55
2022-12-11T18:52:12.066Z,7.15
2022-12-11T18:54:39.808Z,12.85
2022-12-11T18:57:07.894Z,10.65
2022-12-11T18:59:35.658Z,8.25
2022-12-11T19:02:03.642Z,8.50
2022-12-11T19:04:33.265Z,6.30
2022-12-11T19:07:01.146Z,8.52
2022-12-11T19:09:31.666Z,7.97
2022-12-11T19:12:03.040Z,7.72
2022-12-11T19:14:30.665Z,7.22
2022-12-11T19:16:58.444Z,8.05
2022-12-11T19:19:26.111Z,8.00
2022-12-11T19:21:55.120Z,14.20
2022-12-11T19:24:23.381Z,8.38
2022-12-11T19:26:51.450Z,7.05
2022-12-11T19:29:20.843Z,6.75
2022-12-11T19:31:48.844Z,6.55
2022-12-11T19:34:16.757Z,7.53
2022-12-11T19:36:44.645Z,8.70
2022-12-11T19:39:14.356Z,9.23
2022-12-11T19:41:42.372Z,10.25
2022-12-11T19:44:10.490Z,7.55
2022-12-11T19:46:38.300Z,9.27
2022-12-11T19:49:06.496Z,7.80
2022-12-11T19:51:36.496Z,8.02
2022-12-11T19:54:04.632Z,6.10
2022-12-11T19:56:34.348Z,6.45
2022-12-11T19:59:02.973Z,8.68
2022-12-11T20:01:31.337Z,8.05
2022-12-11T20:03:59.773Z,8.18
2022-12-11T20:06:28.237Z,8.07
2022-12-11T20:08:56.285Z,7.97
2022-12-11T20:11:24.051Z,9.07
2022-12-11T20:13:55.465Z,7.78
2022-12-11T20:16:45.758Z,8.20
2022-12-11T20:19:11.158Z,8.98
2022-12-11T20:21:38.845Z,7.13
2022-12-11T20:24:06.820Z,7.80
2022-12-11T20:26:36.567Z,9.32
2022-12-11T20:29:07.471Z,7.07
2022-12-11T20:31:35.830Z,8.18
2022-12-11T20:34:03.582Z,33.75
2022-12-11T20:36:31.204Z,18.25
2022-12-11T20:38:58.900Z,15.02
2022-12-11T20:41:26.899Z,26.63
2022-12-11T20:43:54.682Z,12.38
2022-12-11T20:46:24.974Z,13.93
2022-12-11T20:48:53.109Z,29.58
2022-12-11T20:51:25.682Z,19.48
2022-12-11T20:53:57.430Z,28.58
2022-12-11T20:56:25.488Z,11.90
2022-12-11T20:58:53.208Z,12.25
2022-12-11T21:01:22.259Z,8.93
2022-12-11T21:03:52.296Z,12.43
2022-12-11T21:06:21.178Z,18.27
2022-12-11T21:08:49.019Z,10.35
2022-12-11T21:11:16.735Z,8.55
2022-12-11T21:13:44.736Z,8.25
2022-12-11T21:16:12.598Z,8.85
2022-12-11T21:18:44.856Z,10.02
2022-12-11T21:21:13.987Z,10.35
2022-12-11T21:23:41.736Z,9.45
2022-12-11T21:26:09.439Z,7.95
2022-12-11T21:28:37.180Z,10.63
2022-12-11T21:31:06.045Z,9.30
2022-12-11T21:33:34.110Z,8.27
2022-12-11T21:36:01.846Z,9.18
2022-12-11T21:38:30.986Z,9.10
2022-12-11T21:40:58.724Z,8.43
2022-12-11T21:43:26.431Z,11.43
2022-12-11T21:46:02.398Z,9.57
2022-12-11T21:48:30.290Z,11.07
2022-12-11T21:51:05.080Z,9.77
2022-12-11T21:53:34.254Z,10.18
2022-12-11T21:56:04.947Z,7.47
2022-12-11T21:58:32.527Z,9.63
2022-12-11T22:01:00.249Z,8.88
2022-12-11T22:03:27.865Z,8.95
2022-12-11T22:05:55.561Z,7.95
2022-12-11T22:08:23.435Z,8.82
2022-12-11T22:10:52.509Z,8.60
2022-12-11T22:13:20.237Z,9.23
2022-12-11T22:15:47.927Z,7.53
2022-12-11T22:18:15.677Z,6.82
2022-12-11T22:20:43.808Z,9.73
2022-12-11T22:23:11.474Z,10.13
2022-12-11T22:25:39.367Z,10.25
2022-12-11T22:28:08.388Z,9.88
2022-12-11T22:30:36.120Z,9.15
2022-12-11T22:33:03.764Z,8.68
2022-12-11T22:35:31.393Z,8.70
2022-12-11T22:37:59.054Z,11.57
2022-12-11T22:40:26.870Z,8.80
2022-12-11T22:42:54.732Z,9.82
2022-12-11T22:45:23.777Z,10.60
2022-12-11T22:47:51.432Z,8.40
2022-12-11T22:50:19.697Z,9.10
2022-12-11T22:52:47.481Z,9.35
2022-12-11T22:55:15.552Z,8.10
2022-12-11T22:57:43.170Z,7.78
2022-12-11T23:00:12.181Z,8.50
2022-12-11T23:02:41.285Z,8.55
2022-12-11T23:05:15.615Z,10.38
2022-12-11T23:07:43.412Z,8.70
2022-12-11T23:10:11.775Z,10.38
2022-12-11T23:12:39.455Z,9.70
2022-12-11T23:15:08.020Z,9.85
2022-12-11T23:17:36.044Z,9.82
2022-12-11T23:20:05.825Z,10.65
2022-12-11T23:22:33.622Z,10.75
2022-12-11T23:25:01.341Z,13.10
2022-12-11T23:27:28.977Z,9.73
2022-12-11T23:29:56.643Z,9.55
2022-12-11T23:32:24.580Z,12.20
2022-12-11T23:34:52.305Z,12.90
2022-12-11T23:37:21.290Z,11.57
2022-12-11T23:39:48.922Z,10.75
2022-12-11T23:42:16.588Z,13.07
2022-12-11T23:44:44.206Z,9.52
2022-12-11T23:47:12.036Z,10.40
2022-12-11T23:49:39.694Z,10.60
2022-12-11T23:52:07.323Z,12.57
2022-12-11T23:54:36.332Z,12.95
2022-12-11T23:57:03.968Z,9.07
2022-12-11T23:59:31.666Z,9.65
